createdAt,value
2019-04-21T00:01:49.005Z,33.56
2019-04-21T00:06:11.931Z,34.22
2019-04-21T00:10:18.489Z,33.82
2019-04-21T00:14:23.671Z,34.03
2019-04-21T00:18:31.068Z,34.22
2019-04-21T00:22:50.310Z,34.05
2019-04-21T00:27:04.092Z,33.66
2019-04-21T00:31:12.702Z,32.93
2019-04-21T00:35:07.617Z,32.94
2019-04-21T00:39:36.471Z,33.10
2019-04-21T00:43:32.964Z,33.26
2019-04-21T00:47:43.133Z,37.05
2019-04-21T00:52:07.093Z,33.56
2019-04-21T00:56:15.666Z,34.09
2019-04-21T01:00:22.247Z,34.29
2019-04-21T01:04:30.672Z,34.91
2019-04-21T01:08:39.990Z,35.43
2019-04-21T01:12:41.949Z,35.58
2019-04-21T01:16:55.997Z,36.27
2019-04-21T01:20:37.648Z,36.42
2019-04-21T01:24:48.300Z,36.22
2019-04-21T01:29:06.732Z,37.14
2019-04-21T01:33:21.958Z,37.27
2019-04-21T01:37:34.166Z,37.47
2019-04-21T01:41:52.539Z,37.33
2019-04-21T01:45:37.132Z,37.37
2019-04-21T01:49:37.067Z,37.79
2019-04-21T01:54:12.497Z,37.51
2019-04-21T01:58:03.208Z,37.55
2019-04-21T02:02:19.337Z,38.86
2019-04-21T02:06:27.470Z,39.01
2019-04-21T02:10:39.959Z,39.38
2019-04-21T02:14:50.310Z,39.56
2019-04-21T02:18:49.957Z,39.23
2019-04-21T02:23:12.910Z,39.45
2019-04-21T02:27:07.638Z,39.01
2019-04-21T02:35:52.738Z,39.74
2019-04-21T02:39:40.746Z,39.94
2019-04-21T02:52:01.999Z,39.74
2019-04-21T02:56:07.818Z,39.16
2019-04-21T03:00:26.171Z,38.96
2019-04-21T03:04:28.189Z,39.09
2019-04-21T03:12:39.178Z,40.19
2019-04-21T03:16:39.838Z,40.29
2019-04-21T03:29:20.226Z,38.60
2019-04-21T03:34:05.609Z,38.54
2019-04-21T03:37:37.167Z,38.58
2019-04-21T03:41:39.978Z,39.04
2019-04-21T03:49:59.945Z,39.97
2019-04-21T03:53:53.459Z,39.07
2019-04-21T04:02:38.076Z,40.74
2019-04-21T04:06:53.711Z,39.38
2019-04-21T04:10:51.950Z,39.63
2019-04-21T04:14:50.161Z,40.22
2019-04-21T04:18:57.841Z,40.12
2019-04-21T04:23:08.081Z,39.97
2019-04-21T04:27:33.579Z,41.15
2019-04-21T04:31:30.332Z,41.02
2019-04-21T04:35:45.805Z,41.64
2019-04-21T04:39:57.086Z,44.18
2019-04-21T04:47:59.914Z,41.03
2019-04-21T04:52:31.225Z,41.15
2019-04-21T04:56:16.367Z,41.07
2019-04-21T05:00:28.805Z,41.18
2019-04-21T05:04:37.440Z,41.02
2019-04-21T05:08:49.274Z,41.76
2019-04-21T05:12:38.998Z,41.35
2019-04-21T05:21:06.771Z,42.11
2019-04-21T05:24:51.034Z,42.30
2019-04-21T05:28:52.667Z,45.27
2019-04-21T05:33:34.449Z,39.97
2019-04-21T05:37:38.347Z,39.66
2019-04-21T05:41:36.242Z,38.30
2019-04-21T05:45:52.649Z,38.23
2019-04-21T05:50:04.010Z,38.01
2019-04-21T05:54:22.981Z,38.08
2019-04-21T05:58:23.434Z,37.79
2019-04-21T06:06:39.447Z,36.55
2019-04-21T06:10:49.064Z,35.64
2019-04-21T06:14:55.961Z,34.39
2019-04-21T06:19:04.929Z,35.85
2019-04-21T06:23:13.570Z,35.44
2019-04-21T06:27:15.102Z,36.20
2019-04-21T06:37:21.508Z,32.77
2019-04-21T06:41:13.533Z,31.89
2019-04-21T06:45:18.863Z,31.94
2019-04-21T06:49:25.053Z,30.24
2019-04-21T06:57:44.379Z,29.46
2019-04-21T07:02:01.209Z,28.84
2019-04-21T07:06:06.200Z,28.78
2019-04-21T07:10:10.797Z,29.29
2019-04-21T07:14:25.631Z,27.94
2019-04-21T07:18:23.003Z,27.50
2019-04-21T07:22:31.906Z,27.34
2019-04-21T07:26:36.316Z,26.83
2019-04-21T07:30:43.651Z,26.84
2019-04-21T07:34:52.138Z,25.91
2019-04-21T07:38:57.255Z,24.51
2019-04-21T07:43:03.870Z,25.73
2019-04-21T07:47:13.433Z,25.42
2019-04-21T07:51:31.594Z,24.37
2019-04-21T08:00:04.101Z,24.05
2019-04-21T08:03:51.981Z,22.78
2019-04-21T08:07:57.162Z,23.65
2019-04-21T08:12:04.138Z,24.69
2019-04-21T08:16:22.472Z,23.70
2019-04-21T08:20:18.705Z,21.35
2019-04-21T08:24:28.097Z,21.62
2019-04-21T08:28:43.791Z,20.88
2019-04-21T08:32:52.777Z,21.96
2019-04-21T08:36:52.781Z,19.58
2019-04-21T08:41:01.999Z,19.73
2019-04-21T08:45:11.107Z,18.68
2019-04-21T08:49:15.529Z,18.66
2019-04-21T08:53:27.800Z,18.27
2019-04-21T08:57:44.202Z,18.24
2019-04-21T09:01:44.214Z,19.20
2019-04-21T09:05:52.622Z,19.25
2019-04-21T09:09:57.439Z,21.63
2019-04-21T09:14:02.327Z,16.54
2019-04-21T09:18:10.223Z,18.77
2019-04-21T09:22:20.314Z,22.58
2019-04-21T09:26:28.280Z,17.09
2019-04-21T09:30:17.452Z,18.11
2019-04-21T09:34:30.505Z,19.20
2019-04-21T09:38:37.095Z,18.08
2019-04-21T09:42:44.337Z,19.08
2019-04-21T09:46:50.487Z,18.07
2019-04-21T09:50:55.044Z,19.37
2019-04-21T09:55:06.960Z,18.62
2019-04-21T09:59:18.036Z,16.98
2019-04-21T10:03:17.990Z,18.16
2019-04-21T10:07:31.660Z,17.36
2019-04-21T10:11:31.773Z,13.61
2019-04-21T10:15:37.708Z,16.37
2019-04-21T10:19:44.141Z,16.36
2019-04-21T10:23:50.084Z,10.75
2019-04-21T10:27:56.960Z,10.84
2019-04-21T10:32:03.598Z,10.53
2019-04-21T10:36:09.360Z,10.18
2019-04-21T10:40:15.934Z,12.83
2019-04-21T10:44:23.049Z,10.59
2019-04-21T10:48:31.703Z,10.52
2019-04-21T10:52:55.356Z,10.17
2019-04-21T10:57:04.180Z,10.13
2019-04-21T11:01:14.503Z,10.05
2019-04-21T11:05:20.836Z,9.97
2019-04-21T11:09:26.609Z,10.44
2019-04-21T11:13:32.694Z,9.19
2019-04-21T11:17:40.634Z,10.57
2019-04-21T11:21:46.981Z,9.23
2019-04-21T11:25:53.922Z,10.35
2019-04-21T11:29:59.855Z,10.07
2019-04-21T11:34:07.145Z,9.41
2019-04-21T11:38:22.410Z,12.57
2019-04-21T11:42:30.675Z,15.46
2019-04-21T11:46:36.434Z,9.76
2019-04-21T11:50:43.331Z,9.06
2019-04-21T11:54:49.135Z,8.59
2019-04-21T11:58:54.845Z,10.65
2019-04-21T12:03:01.601Z,9.77
2019-04-21T12:07:07.516Z,10.39
2019-04-21T12:11:13.719Z,9.92
2019-04-21T12:15:20.764Z,10.87
2019-04-21T12:19:27.072Z,10.39
2019-04-21T12:23:34.270Z,8.70
2019-04-21T12:27:41.600Z,8.86
2019-04-21T12:32:05.628Z,9.74
2019-04-21T12:36:11.707Z,9.21
2019-04-21T12:40:18.706Z,12.47
2019-04-21T12:44:24.649Z,12.46
2019-04-21T12:48:31.678Z,9.55
2019-04-21T12:52:37.902Z,15.08
2019-04-21T12:56:43.579Z,13.84
2019-04-21T13:00:49.759Z,13.60
2019-04-21T13:05:07.460Z,10.29
2019-04-21T13:09:17.988Z,8.64
2019-04-21T13:13:21.883Z,8.95
2019-04-21T13:17:27.844Z,10.44
2019-04-21T13:21:34.208Z,8.93
2019-04-21T13:25:41.546Z,12.74
2019-04-21T13:29:48.287Z,10.05
2019-04-21T13:33:53.988Z,10.31
2019-04-21T13:38:00.575Z,11.15
2019-04-21T13:42:17.426Z,11.60
2019-04-21T13:46:17.593Z,11.46
2019-04-21T13:50:23.729Z,15.04
2019-04-21T13:54:29.690Z,10.46
2019-04-21T13:58:35.435Z,10.43
2019-04-21T14:02:42.558Z,10.66
2019-04-21T14:06:49.979Z,10.27
2019-04-21T14:10:57.469Z,10.56
2019-04-21T14:15:08.341Z,10.25
2019-04-21T14:19:15.331Z,11.18
2019-04-21T14:23:30.804Z,10.87
2019-04-21T14:27:28.507Z,11.13
2019-04-21T14:31:34.659Z,16.00
2019-04-21T14:35:41.059Z,16.97
2019-04-21T14:39:52.752Z,12.92
2019-04-21T14:43:55.130Z,18.05
2019-04-21T14:48:19.077Z,19.96
2019-04-21T14:52:26.569Z,18.25
2019-04-21T14:56:33.464Z,12.64
2019-04-21T15:00:57.931Z,12.35
2019-04-21T15:05:04.206Z,13.00
2019-04-21T15:09:11.169Z,13.53
2019-04-21T15:13:17.359Z,12.85
2019-04-21T15:17:24.954Z,14.15
2019-04-21T15:21:31.258Z,13.97
2019-04-21T15:25:38.229Z,16.09
2019-04-21T15:29:44.873Z,19.74
2019-04-21T15:33:50.660Z,14.08
2019-04-21T15:37:57.919Z,13.37
2019-04-21T15:42:03.810Z,14.43
2019-04-21T15:46:10.977Z,14.37
2019-04-21T15:50:19.653Z,14.68
2019-04-21T15:54:26.800Z,13.99
2019-04-21T15:58:37.038Z,14.03
2019-04-21T16:02:44.669Z,14.49
2019-04-21T16:06:50.398Z,14.84
2019-04-21T16:11:00.127Z,15.49
2019-04-21T16:15:05.105Z,17.01
2019-04-21T16:19:12.139Z,15.15
2019-04-21T16:23:18.387Z,15.49
2019-04-21T16:27:25.674Z,15.71
2019-04-21T16:31:32.241Z,15.03
2019-04-21T16:35:44.069Z,15.12
2019-04-21T16:39:49.782Z,15.32
2019-04-21T16:43:55.654Z,15.60
2019-04-21T16:48:01.427Z,20.53
2019-04-21T16:52:10.026Z,16.04
2019-04-21T16:56:17.400Z,16.38
2019-04-21T17:00:36.781Z,16.46
2019-04-21T17:04:34.127Z,16.44
2019-04-21T17:08:40.916Z,16.93
2019-04-21T17:12:47.980Z,15.71
2019-04-21T17:17:17.851Z,22.65
2019-04-21T17:21:02.946Z,21.78
2019-04-21T17:25:08.953Z,16.17
2019-04-21T17:29:14.745Z,17.78
2019-04-21T17:33:26.369Z,17.44
2019-04-21T17:37:29.226Z,19.63
2019-04-21T17:41:42.451Z,17.40
2019-04-21T17:45:44.885Z,27.14
2019-04-21T17:49:53.567Z,24.53
2019-04-21T17:54:13.756Z,17.69
2019-04-21T17:58:27.875Z,20.95
2019-04-21T18:02:43.411Z,19.60
2019-04-21T18:07:01.808Z,18.77
2019-04-21T18:11:05.763Z,23.15
2019-04-21T18:15:21.616Z,19.86
2019-04-21T18:19:11.394Z,19.32
2019-04-21T18:23:34.880Z,19.30
2019-04-21T18:27:34.484Z,19.26
2019-04-21T18:31:45.589Z,19.56
2019-04-21T18:35:55.143Z,19.73
2019-04-21T18:40:09.634Z,19.71
2019-04-21T18:44:33.258Z,19.65
2019-04-21T18:48:27.426Z,19.68
2019-04-21T18:52:45.629Z,21.20
2019-04-21T18:56:49.898Z,21.22
2019-04-21T19:00:45.889Z,22.04
2019-04-21T19:04:54.405Z,22.23
2019-04-21T19:09:18.712Z,22.68
2019-04-21T19:13:41.929Z,22.35
2019-04-21T19:21:41.674Z,23.06
2019-04-21T19:26:05.265Z,23.94
2019-04-21T19:30:05.647Z,23.84
2019-04-21T19:33:57.365Z,24.14
2019-04-21T19:37:59.181Z,24.30
2019-04-21T19:42:14.454Z,24.22
2019-04-21T19:46:22.444Z,25.05
2019-04-21T19:50:36.452Z,25.36
2019-04-21T19:54:32.015Z,24.97
2019-04-21T19:58:33.881Z,25.20
2019-04-21T20:02:40.222Z,24.00
2019-04-21T20:06:58.442Z,25.97
2019-04-21T20:11:18.273Z,25.59
2019-04-21T20:15:28.451Z,25.50
2019-04-21T20:19:12.008Z,24.80
2019-04-21T20:23:22.815Z,24.60
2019-04-21T20:27:36.207Z,25.18
2019-04-21T20:31:50.607Z,24.92
2019-04-21T20:36:16.934Z,25.41
2019-04-21T20:39:54.994Z,25.68
2019-04-21T20:44:13.294Z,25.72
2019-04-21T20:48:13.976Z,26.03
2019-04-21T20:52:33.617Z,26.38
2019-04-21T20:56:37.488Z,25.76
2019-04-21T21:00:54.717Z,26.78
2019-04-21T21:04:43.466Z,26.74
2019-04-21T21:08:57.279Z,26.27
2019-04-21T21:13:14.506Z,26.33
2019-04-21T21:17:25.047Z,26.30
2019-04-21T21:21:20.666Z,26.10
2019-04-21T21:25:40.059Z,26.08
2019-04-21T21:29:41.964Z,25.91
2019-04-21T21:33:59.063Z,26.17
2019-04-21T21:37:55.409Z,26.70
2019-04-21T21:41:53.069Z,26.62
2019-04-21T21:45:59.525Z,27.45
2019-04-21T21:50:11.650Z,27.08
2019-04-21T21:54:11.697Z,27.00
2019-04-21T21:58:25.071Z,27.16
2019-04-21T22:02:34.917Z,27.39
2019-04-21T22:06:43.379Z,29.26
2019-04-21T22:10:41.207Z,27.76
2019-04-21T22:14:51.785Z,27.93
2019-04-21T22:19:13.269Z,28.97
2019-04-21T22:23:11.294Z,28.71
2019-04-21T22:27:10.354Z,27.34
2019-04-21T22:31:22.404Z,27.21
2019-04-21T22:35:31.640Z,29.86
2019-04-21T22:39:48.043Z,29.32
2019-04-21T22:43:43.892Z,28.50
2019-04-21T22:47:47.945Z,28.65
2019-04-21T22:51:53.962Z,28.02
2019-04-21T22:56:10.952Z,28.57
2019-04-21T23:00:14.599Z,28.68
2019-04-21T23:04:20.979Z,28.98
2019-04-21T23:08:34.382Z,28.69
2019-04-21T23:12:38.190Z,28.01
2019-04-21T23:16:45.374Z,31.23
2019-04-21T23:21:08.828Z,28.65
2019-04-21T23:25:13.616Z,29.22
2019-04-21T23:29:25.845Z,29.40
2019-04-21T23:33:15.509Z,30.58
2019-04-21T23:37:23.373Z,30.79
2019-04-21T23:41:33.675Z,30.74
2019-04-21T23:45:37.760Z,29.54
2019-04-21T23:49:50.982Z,30.22
2019-04-21T23:53:49.080Z,31.78
2019-04-21T23:58:04.962Z,30.32
